Hovedside
METAR-TAF:

METAR-TAF

Lufthavner :

Linköping lufthavn

Linköping, Sverige

breddegrad: 58-24N, lengdegrad: 015-41E, høyde over havet: 52 m

Gjeldene værobservasjon

Denne rapporten ble laget for 42 minutter siden, klokken 20:20 UTC
Vind 6 kt fra Øst
Temperatur 8°C
Luftfuktighet 53%
Trykk 1023 hPa
Sikt 10 km eller mer
ingen skyer under 1500 m og ingen bygeskyer

METAR: ESSL 232020Z 10006KT CAVOK 08/M01 Q1023

Tid: 23:02 (21:02 UTC)

Varsel

Denne rapporten ble laget for 3 timer og 32 minutter siden, klokken 17:30 UTC
Varsel gyldig fra 23. klokken 18 UTC til 23. klokken 23 UTC
Vind 10 kt fra Sørøst
Sikt 10 km eller mer
ingen skyer under 1500 m og ingen bygeskyer

TAF: ESSL 231730Z 2318/2323 13010KT CAVOK

Værobservasjoner og værvarsel for over 4000 flyplasser (METAR- og TAF-rapporter).

Tilgjengelige stasjoner er representert av de røde og gule prikkene på kartet.

Hold musepekeren over prikken for å se navnet på stasjonen.

Klikk så for å se værobservasjoner og -varsler.

For å forandre kartet kan du klikke på den grønne knappen med svart kryss for å zoome inn, på den grønne knappen med strek for å zoome ut, eller på de grønne pilene for å se tilstøtende kart.


METAR-TAF: